Terminal Aerodrome Forecast
Issued by NWS

Home | Current Version | Previous Version | Graphics & Text | Print | Product List | Glossary On
Versions: 1 2 3 4 5 6 7 8 9 10 11 12 13 14 15
000
FTUS43 KABR 130500
TAFMBG
TAF
KMBG 130527Z 1306/1406 16009KT P6SM FEW250
     FM131600 22012KT P6SM SKC
     FM131900 29014KT P6SM SKC
     FM140000 33009KT P6SM SKC=

USA.gov is the U.S. government's official web portal to all federal, state and local government web resources and services.